sensor_id;sensor_type;location;lat;lon;timestamp;pressure;altitude;pressure_sealevel;temperature;humidity
13476;BME280;6810;63.824;20.288;2022-09-09T00:02:19;102558.94;;;10.43;72.34
13476;BME280;6810;63.824;20.288;2022-09-09T00:07:51;102544.00;;;10.37;71.53
13476;BME280;6810;63.824;20.288;2022-09-09T00:10:36;102559.84;;;10.43;72.20
13476;BME280;6810;63.824;20.288;2022-09-09T00:13:34;102559.84;;;10.43;71.63
13476;BME280;6810;63.824;20.288;2022-09-09T00:16:17;102553.66;;;10.41;71.58
13476;BME280;6810;63.824;20.288;2022-09-09T00:22:25;102558.94;;;10.43;72.70
13476;BME280;6810;63.824;20.288;2022-09-09T00:25:28;102562.50;;;10.43;71.60
13476;BME280;6810;63.824;20.288;2022-09-09T00:28:24;102555.34;;;10.44;72.69
13476;BME280;6810;63.824;20.288;2022-09-09T00:31:16;102561.56;;;10.44;72.89
13476;BME280;6810;63.824;20.288;2022-09-09T00:34:15;102555.38;;;10.42;72.79
13476;BME280;6810;63.824;20.288;2022-09-09T00:37:05;102544.09;;;10.34;72.24
13476;BME280;6810;63.824;20.288;2022-09-09T00:39:59;102563.31;;;10.45;71.90
13476;BME280;6810;63.824;20.288;2022-09-09T00:43:06;102508.97;;;10.20;72.16
13476;BME280;6810;63.824;20.288;2022-09-09T00:46:36;102549.16;;;10.43;72.01
13476;BME280;6810;63.824;20.288;2022-09-09T00:50:03;102545.56;;;10.44;72.30
13476;BME280;6810;63.824;20.288;2022-09-09T00:52:59;102542.91;;;10.44;73.01
13476;BME280;6810;63.824;20.288;2022-09-09T00:59:22;102545.56;;;10.44;72.86
13476;BME280;6810;63.824;20.288;2022-09-09T01:17:24;102540.25;;;10.44;73.35
13476;BME280;6810;63.824;20.288;2022-09-09T01:20:14;102541.16;;;10.43;73.47
13476;BME280;6810;63.824;20.288;2022-09-09T01:29:15;102538.50;;;10.43;72.51
13476;BME280;6810;63.824;20.288;2022-09-09T01:32:39;102531.41;;;10.42;73.04
13476;BME280;6810;63.824;20.288;2022-09-09T01:38:21;102526.06;;;10.42;73.35
13476;BME280;6810;63.824;20.288;2022-09-09T01:41:08;102527.88;;;10.42;73.23
13476;BME280;6810;63.824;20.288;2022-09-09T01:44:05;102519.94;;;10.40;73.34
13476;BME280;6810;63.824;20.288;2022-09-09T01:46:52;102532.38;;;10.40;72.51
13476;BME280;6810;63.824;20.288;2022-09-09T01:49:54;102526.13;;;10.41;72.74
13476;BME280;6810;63.824;20.288;2022-09-09T01:52:42;102523.44;;;10.41;72.53
13476;BME280;6810;63.824;20.288;2022-09-09T01:55:40;102529.72;;;10.40;73.87
13476;BME280;6810;63.824;20.288;2022-09-09T01:58:56;102519.94;;;10.40;73.71
13476;BME280;6810;63.824;20.288;2022-09-09T02:02:11;102525.25;;;10.40;72.57
13476;BME280;6810;63.824;20.288;2022-09-09T02:08:26;102515.50;;;10.39;73.87
13476;BME280;6810;63.824;20.288;2022-09-09T02:11:18;102517.31;;;10.39;73.69
13476;BME280;6810;63.824;20.288;2022-09-09T02:14:17;102515.53;;;10.38;73.35
13476;BME280;6810;63.824;20.288;2022-09-09T02:17:10;102511.09;;;10.38;72.89
13476;BME280;6810;63.824;20.288;2022-09-09T02:20:12;102488.41;;;10.24;74.15
13476;BME280;6810;63.824;20.288;2022-09-09T02:23:01;102508.56;;;10.34;73.62
13476;BME280;6810;63.824;20.288;2022-09-09T02:25:52;102507.50;;;10.39;73.16
13476;BME280;6810;63.824;20.288;2022-09-09T02:28:41;102506.66;;;10.39;74.22
13476;BME280;6810;63.824;20.288;2022-09-09T02:31:28;102503.97;;;10.39;73.29
13476;BME280;6810;63.824;20.288;2022-09-09T02:34:20;102503.06;;;10.40;74.24
13476;BME280;6810;63.824;20.288;2022-09-09T02:37:11;102507.50;;;10.39;73.69
13476;BME280;6810;63.824;20.288;2022-09-09T02:40:00;102507.50;;;10.39;73.24
13476;BME280;6810;63.824;20.288;2022-09-09T02:42:54;102501.25;;;10.40;73.12
13476;BME280;6810;63.824;20.288;2022-09-09T02:45:50;102496.78;;;10.41;74.13
13476;BME280;6810;63.824;20.288;2022-09-09T02:48:51;102487.94;;;10.40;73.47
13476;BME280;6810;63.824;20.288;2022-09-09T02:54:55;102487.94;;;10.40;73.52
13476;BME280;6810;63.824;20.288;2022-09-09T02:57:47;102465.16;;;10.29;74.30
13476;BME280;6810;63.824;20.288;2022-09-09T03:00:35;102479.00;;;10.41;73.84
13476;BME280;6810;63.824;20.288;2022-09-09T03:03:26;102484.28;;;10.43;73.58
13476;BME280;6810;63.824;20.288;2022-09-09T03:06:15;102480.84;;;10.39;73.73
13476;BME280;6810;63.824;20.288;2022-09-09T03:09:14;102482.47;;;10.45;74.52
13476;BME280;6810;63.824;20.288;2022-09-09T03:12:01;102480.66;;;10.45;74.20
13476;BME280;6810;63.824;20.288;2022-09-09T03:14:48;102477.09;;;10.46;73.91
13476;BME280;6810;63.824;20.288;2022-09-09T03:17:36;102445.56;;;10.31;74.27
13476;BME280;6810;63.824;20.288;2022-09-09T03:20:24;102467.22;;;10.48;74.39
13476;BME280;6810;63.824;20.288;2022-09-09T03:23:11;102470.78;;;10.49;73.75
13476;BME280;6810;63.824;20.288;2022-09-09T03:26:01;102469.00;;;10.49;74.81
13476;BME280;6810;63.824;20.288;2022-09-09T03:28:48;102467.13;;;10.51;74.51
13476;BME280;6810;63.824;20.288;2022-09-09T03:31:36;102463.66;;;10.49;74.64
13476;BME280;6810;63.824;20.288;2022-09-09T07:38:26;102432.38;;;12.34;72.06
13476;BME280;6810;63.824;20.288;2022-09-09T07:41:06;102431.31;;;12.38;72.16
13476;BME280;6810;63.824;20.288;2022-09-09T07:43:33;102431.06;;;12.44;72.58
13476;BME280;6810;63.824;20.288;2022-09-09T07:46:02;102405.50;;;12.37;72.18
13476;BME280;6810;63.824;20.288;2022-09-09T07:48:29;102431.47;;;12.57;72.21
13476;BME280;6810;63.824;20.288;2022-09-09T07:51:12;102426.81;;;12.62;72.19
13476;BME280;6810;63.824;20.288;2022-09-09T07:53:40;102427.47;;;12.68;72.45
13476;BME280;6810;63.824;20.288;2022-09-09T07:56:10;102430.00;;;12.71;72.53
13476;BME280;6810;63.824;20.288;2022-09-09T07:58:38;102413.91;;;12.73;72.05
13476;BME280;6810;63.824;20.288;2022-09-09T08:01:30;102428.63;;;12.83;71.28
13476;BME280;6810;63.824;20.288;2022-09-09T08:04:00;102423.91;;;12.89;71.18
13476;BME280;6810;63.824;20.288;2022-09-09T08:06:51;102422.78;;;12.95;70.83
13476;BME280;6810;63.824;20.288;2022-09-09T08:09:48;102430.59;;;13.01;70.27
13476;BME280;6810;63.824;20.288;2022-09-09T08:12:37;102419.75;;;13.04;70.28
13476;BME280;6810;63.824;20.288;2022-09-09T08:15:43;102438.06;;;13.14;70.33
13476;BME280;6810;63.824;20.288;2022-09-09T08:18:31;102399.03;;;13.09;69.65
13476;BME280;6810;63.824;20.288;2022-09-09T08:21:20;102427.78;;;13.25;69.60
13476;BME280;6810;63.824;20.288;2022-09-09T08:24:10;102433.94;;;13.27;68.71
13476;BME280;6810;63.824;20.288;2022-09-09T08:26:57;102425.78;;;13.30;68.73
13476;BME280;6810;63.824;20.288;2022-09-09T08:29:44;102429.22;;;13.34;68.10
13476;BME280;6810;63.824;20.288;2022-09-09T08:32:31;102424.56;;;13.37;67.82
13476;BME280;6810;63.824;20.288;2022-09-09T08:35:21;102424.44;;;13.40;67.55
13476;BME280;6810;63.824;20.288;2022-09-09T08:38:08;102418.88;;;13.45;67.21
13476;BME280;6810;63.824;20.288;2022-09-09T08:41:03;102416.88;;;13.50;67.71
13476;BME280;6810;63.824;20.288;2022-09-09T08:43:33;102420.25;;;13.55;67.30
13476;BME280;6810;63.824;20.288;2022-09-09T08:46:27;102417.31;;;13.61;66.70
13476;BME280;6810;63.824;20.288;2022-09-09T08:49:33;102417.97;;;13.66;66.99
13476;BME280;6810;63.824;20.288;2022-09-09T08:52:31;102419.44;;;13.73;66.56
13476;BME280;6810;63.824;20.288;2022-09-09T08:58:33;102418.03;;;13.84;65.74
13476;BME280;6810;63.824;20.288;2022-09-09T09:10:55;102420.66;;;14.05;65.46
13476;BME280;6810;63.824;20.288;2022-09-09T09:13:52;102392.41;;;13.98;65.14
13476;BME280;6810;63.824;20.288;2022-09-09T09:17:04;102378.41;;;13.91;65.44
13476;BME280;6810;63.824;20.288;2022-09-09T09:19:39;102378.19;;;13.95;64.66
13476;BME280;6810;63.824;20.288;2022-09-09T09:22:41;102410.94;;;14.22;64.65
13476;BME280;6810;63.824;20.288;2022-09-09T09:25:35;102410.75;;;14.27;64.66
13476;BME280;6810;63.824;20.288;2022-09-09T09:28:29;102408.81;;;14.30;64.95
13476;BME280;6810;63.824;20.288;2022-09-09T09:31:19;102410.38;;;14.34;64.25
13476;BME280;6810;63.824;20.288;2022-09-09T09:34:08;102403.16;;;14.36;63.97
13476;BME280;6810;63.824;20.288;2022-09-09T09:36:57;102385.66;;;14.28;64.33
13476;BME280;6810;63.824;20.288;2022-09-09T09:39:45;102415.38;;;14.42;64.14
13476;BME280;6810;63.824;20.288;2022-09-09T09:42:31;102413.44;;;14.45;64.17
13476;BME280;6810;63.824;20.288;2022-09-09T09:45:41;102411.50;;;14.49;63.49
13476;BME280;6810;63.824;20.288;2022-09-09T09:48:56;102401.53;;;14.51;63.41
13476;BME280;6810;63.824;20.288;2022-09-09T09:51:43;102392.78;;;14.47;63.18
13476;BME280;6810;63.824;20.288;2022-09-09T09:54:34;102415.53;;;14.57;63.08
13476;BME280;6810;63.824;20.288;2022-09-09T09:57:15;102412.78;;;14.59;63.35
13476;BME280;6810;63.824;20.288;2022-09-09T09:59:45;102414.38;;;14.63;63.29
13476;BME280;6810;63.824;20.288;2022-09-09T10:02:25;102413.38;;;14.65;62.78
13476;BME280;6810;63.824;20.288;2022-09-09T10:05:12;102406.00;;;14.69;62.92
13476;BME280;6810;63.824;20.288;2022-09-09T10:07:43;102403.25;;;14.70;63.25
13476;BME280;6810;63.824;20.288;2022-09-09T10:10:25;102396.09;;;14.71;62.90
13476;BME280;6810;63.824;20.288;2022-09-09T10:13:18;102405.78;;;14.73;62.69
13476;BME280;6810;63.824;20.288;2022-09-09T10:24:15;102404.50;;;14.82;62.32
13476;BME280;6810;63.824;20.288;2022-09-09T10:30:04;102391.22;;;14.79;62.33
13476;BME280;6810;63.824;20.288;2022-09-09T10:32:38;102399.19;;;14.80;61.96
13476;BME280;6810;63.824;20.288;2022-09-09T10:38:17;102395.47;;;14.83;62.55
13476;BME280;6810;63.824;20.288;2022-09-09T10:46:48;102391.56;;;14.90;61.80
13476;BME280;6810;63.824;20.288;2022-09-09T10:55:16;102375.84;;;14.82;61.90
13476;BME280;6810;63.824;20.288;2022-09-09T10:57:48;102388.56;;;14.96;61.62
13476;BME280;6810;63.824;20.288;2022-09-09T11:00:25;102375.31;;;14.93;61.38
13476;BME280;6810;63.824;20.288;2022-09-09T11:03:00;102377.53;;;15.02;61.72
13476;BME280;6810;63.824;20.288;2022-09-09T11:06:05;102383.50;;;15.07;61.55
13476;BME280;6810;63.824;20.288;2022-09-09T11:08:35;102374.69;;;15.05;61.06
13476;BME280;6810;63.824;20.288;2022-09-09T11:13:40;102381.56;;;15.10;60.97
13476;BME280;6810;63.824;20.288;2022-09-09T11:19:27;102380.78;;;15.08;61.03
13476;BME280;6810;63.824;20.288;2022-09-09T11:21:56;102391.13;;;15.16;60.08
13476;BME280;6810;63.824;20.288;2022-09-09T11:24:32;102383.84;;;15.18;60.41
13476;BME280;6810;63.824;20.288;2022-09-09T11:40:24;102377.13;;;15.09;60.14
13476;BME280;6810;63.824;20.288;2022-09-09T11:43:39;102378.13;;;15.07;60.18
13476;BME280;6810;63.824;20.288;2022-09-09T11:46:33;102379.03;;;15.07;60.27
13476;BME280;6810;63.824;20.288;2022-09-09T11:49:30;102373.66;;;15.07;59.80
13476;BME280;6810;63.824;20.288;2022-09-09T11:52:37;102372.84;;;15.05;59.99
13476;BME280;6810;63.824;20.288;2022-09-09T12:00:59;102374.91;;;15.00;60.38
13476;BME280;6810;63.824;20.288;2022-09-09T12:03:48;102375.53;;;15.05;60.47
13476;BME280;6810;63.824;20.288;2022-09-09T12:06:59;102364.78;;;15.05;60.58
13476;BME280;6810;63.824;20.288;2022-09-09T12:12:36;102363.31;;;15.17;60.65
13476;BME280;6810;63.824;20.288;2022-09-09T12:15:28;102371.28;;;15.18;60.29
13476;BME280;6810;63.824;20.288;2022-09-09T12:18:23;102352.56;;;15.17;60.04
13476;BME280;6810;63.824;20.288;2022-09-09T12:24:22;102353.41;;;15.34;60.88
13476;BME280;6810;63.824;20.288;2022-09-09T12:30:07;102342.13;;;15.62;59.98
13476;BME280;6810;63.824;20.288;2022-09-09T12:32:36;102350.75;;;15.69;59.97
13476;BME280;6810;63.824;20.288;2022-09-09T12:38:02;102332.56;;;15.74;60.17
13476;BME280;6810;63.824;20.288;2022-09-09T12:40:33;102337.34;;;15.84;60.18
13476;BME280;6810;63.824;20.288;2022-09-09T12:43:17;102338.13;;;15.86;60.29
13476;BME280;6810;63.824;20.288;2022-09-09T12:45:44;102337.19;;;15.87;60.52
13476;BME280;6810;63.824;20.288;2022-09-09T12:48:12;102342.31;;;15.92;59.95
13476;BME280;6810;63.824;20.288;2022-09-09T12:50:50;102333.97;;;15.96;60.28
13476;BME280;6810;63.824;20.288;2022-09-09T12:53:27;102343.38;;;16.05;60.19
13476;BME280;6810;63.824;20.288;2022-09-09T12:55:59;102336.88;;;16.09;59.52
13476;BME280;6810;63.824;20.288;2022-09-09T12:58:28;102338.16;;;16.17;59.09
13476;BME280;6810;63.824;20.288;2022-09-09T13:01:00;102324.63;;;16.19;59.54
13476;BME280;6810;63.824;20.288;2022-09-09T13:03:28;102331.84;;;16.34;59.74
13476;BME280;6810;63.824;20.288;2022-09-09T13:05:58;102332.19;;;16.43;59.27
13476;BME280;6810;63.824;20.288;2022-09-09T13:08:36;102331.97;;;16.48;58.62
13476;BME280;6810;63.824;20.288;2022-09-09T13:11:09;102330.06;;;16.50;58.58
13476;BME280;6810;63.824;20.288;2022-09-09T13:13:42;102334.56;;;16.49;58.33
13476;BME280;6810;63.824;20.288;2022-09-09T13:16:29;102331.22;;;16.46;58.17
13476;BME280;6810;63.824;20.288;2022-09-09T13:19:17;102323.44;;;16.40;57.42
13476;BME280;6810;63.824;20.288;2022-09-09T13:22:23;102322.03;;;16.33;57.77
13476;BME280;6810;63.824;20.288;2022-09-09T13:28:20;102294.63;;;16.11;57.78
13476;BME280;6810;63.824;20.288;2022-09-09T13:31:33;102311.53;;;16.13;58.39
13476;BME280;6810;63.824;20.288;2022-09-09T13:34:32;102304.84;;;16.04;57.56
13476;BME280;6810;63.824;20.288;2022-09-09T13:37:28;102272.19;;;15.79;58.02
13476;BME280;6810;63.824;20.288;2022-09-09T13:40:20;102293.88;;;15.92;58.65
13476;BME280;6810;63.824;20.288;2022-09-09T13:43:18;102289.56;;;15.89;58.55
13476;BME280;6810;63.824;20.288;2022-09-09T13:49:19;102294.22;;;15.86;58.45
13476;BME280;6810;63.824;20.288;2022-09-09T13:51:51;102302.47;;;15.83;58.31
13476;BME280;6810;63.824;20.288;2022-09-09T13:54:20;102298.06;;;15.82;58.55
13476;BME280;6810;63.824;20.288;2022-09-09T13:57:19;102286.66;;;15.77;58.69
13476;BME280;6810;63.824;20.288;2022-09-09T14:00:10;102284.06;;;15.75;58.36
13476;BME280;6810;63.824;20.288;2022-09-09T14:02:58;102295.00;;;15.72;58.79
13476;BME280;6810;63.824;20.288;2022-09-09T14:05:45;102296.09;;;15.68;58.53
13476;BME280;6810;63.824;20.288;2022-09-09T14:08:33;102290.03;;;15.65;58.47
13476;BME280;6810;63.824;20.288;2022-09-09T14:11:20;102289.22;;;15.63;58.52
13476;BME280;6810;63.824;20.288;2022-09-09T14:14:07;102279.53;;;15.60;58.36
13476;BME280;6810;63.824;20.288;2022-09-09T14:16:54;102285.84;;;15.59;58.61
13476;BME280;6810;63.824;20.288;2022-09-09T14:19:41;102282.38;;;15.57;58.55
13476;BME280;6810;63.824;20.288;2022-09-09T14:22:28;102283.38;;;15.54;58.84
13476;BME280;6810;63.824;20.288;2022-09-09T14:25:15;102283.47;;;15.53;58.42
13476;BME280;6810;63.824;20.288;2022-09-09T14:28:02;102285.47;;;15.49;58.60
13476;BME280;6810;63.824;20.288;2022-09-09T14:31:09;102277.34;;;15.51;58.57
13476;BME280;6810;63.824;20.288;2022-09-09T14:33:56;102269.53;;;15.46;58.81
13476;BME280;6810;63.824;20.288;2022-09-09T14:36:43;102277.75;;;15.43;58.56
13476;BME280;6810;63.824;20.288;2022-09-09T14:39:30;102273.31;;;15.42;58.54
13476;BME280;6810;63.824;20.288;2022-09-09T14:42:17;102278.69;;;15.42;58.74
13476;BME280;6810;63.824;20.288;2022-09-09T14:45:05;102273.47;;;15.39;59.04
13476;BME280;6810;63.824;20.288;2022-09-09T14:47:52;102258.84;;;15.28;58.91
13476;BME280;6810;63.824;20.288;2022-09-09T14:50:39;102264.75;;;15.34;59.02
13476;BME280;6810;63.824;20.288;2022-09-09T14:53:26;102264.81;;;15.33;59.24
13476;BME280;6810;63.824;20.288;2022-09-09T14:56:19;102270.13;;;15.34;59.19
13476;BME280;6810;63.824;20.288;2022-09-09T14:59:06;102260.25;;;15.35;59.33
13476;BME280;6810;63.824;20.288;2022-09-09T15:01:33;102261.00;;;15.38;59.26
13476;BME280;6810;63.824;20.288;2022-09-09T15:04:03;102259.16;;;15.39;58.93
13476;BME280;6810;63.824;20.288;2022-09-09T15:06:32;102252.09;;;15.36;58.71
13476;BME280;6810;63.824;20.288;2022-09-09T15:09:00;102252.97;;;15.37;58.63
13476;BME280;6810;63.824;20.288;2022-09-09T15:11:29;102247.69;;;15.35;59.06
13476;BME280;6810;63.824;20.288;2022-09-09T15:13:57;102249.50;;;15.35;59.37
13476;BME280;6810;63.824;20.288;2022-09-09T15:16:27;102245.16;;;15.32;58.92
13476;BME280;6810;63.824;20.288;2022-09-09T15:18:56;102242.56;;;15.31;59.29
13476;BME280;6810;63.824;20.288;2022-09-09T15:21:26;102238.13;;;15.30;58.74
13476;BME280;6810;63.824;20.288;2022-09-09T15:23:54;102249.75;;;15.30;58.86
13476;BME280;6810;63.824;20.288;2022-09-09T15:26:22;102240.72;;;15.31;58.93
13476;BME280;6810;63.824;20.288;2022-09-09T15:28:49;102234.59;;;15.29;58.86
13476;BME280;6810;63.824;20.288;2022-09-09T15:36:18;102238.38;;;15.25;59.05
13476;BME280;6810;63.824;20.288;2022-09-09T15:38:46;102236.88;;;15.20;58.97
13476;BME280;6810;63.824;20.288;2022-09-09T15:41:15;102234.78;;;15.09;59.21
13476;BME280;6810;63.824;20.288;2022-09-09T15:43:47;102206.59;;;14.84;59.08
13476;BME280;6810;63.824;20.288;2022-09-09T15:48:52;102248.75;;;14.99;59.68
13476;BME280;6810;63.824;20.288;2022-09-09T15:51:20;102257.06;;;14.94;59.78
13476;BME280;6810;63.824;20.288;2022-09-09T15:54:07;102253.75;;;14.89;60.36
13476;BME280;6810;63.824;20.288;2022-09-09T15:56:34;102254.84;;;14.85;60.37
13476;BME280;6810;63.824;20.288;2022-09-09T15:59:02;102251.38;;;14.83;60.37
13476;BME280;6810;63.824;20.288;2022-09-09T16:01:32;102231.44;;;14.70;60.61
13476;BME280;6810;63.824;20.288;2022-09-09T16:04:19;102241.81;;;14.78;60.53
13476;BME280;6810;63.824;20.288;2022-09-09T16:07:07;102246.09;;;14.82;60.39
13476;BME280;6810;63.824;20.288;2022-09-09T16:09:53;102240.94;;;14.77;60.58
13476;BME280;6810;63.824;20.288;2022-09-09T16:12:40;102241.09;;;14.74;60.88
13476;BME280;6810;63.824;20.288;2022-09-09T16:15:27;102237.69;;;14.71;60.88
13476;BME280;6810;63.824;20.288;2022-09-09T16:18:14;102247.78;;;14.66;61.15
13476;BME280;6810;63.824;20.288;2022-09-09T16:21:02;102226.09;;;14.53;61.31
13476;BME280;6810;63.824;20.288;2022-09-09T16:23:50;102238.56;;;14.54;61.12
13476;BME280;6810;63.824;20.288;2022-09-09T16:26:42;102243.19;;;14.51;61.59
13476;BME280;6810;63.824;20.288;2022-09-09T16:29:29;102239.03;;;14.45;61.77
13476;BME280;6810;63.824;20.288;2022-09-09T16:32:16;102241.78;;;14.44;61.97
13476;BME280;6810;63.824;20.288;2022-09-09T16:35:03;102237.72;;;14.35;62.26
13476;BME280;6810;63.824;20.288;2022-09-09T16:37:50;102235.03;;;14.35;62.58
13476;BME280;6810;63.824;20.288;2022-09-09T16:40:38;102242.41;;;14.32;62.48
13476;BME280;6810;63.824;20.288;2022-09-09T16:43:25;102239.06;;;14.27;62.66
13476;BME280;6810;63.824;20.288;2022-09-09T16:46:17;102233.91;;;14.22;62.97
13476;BME280;6810;63.824;20.288;2022-09-09T16:49:06;102235.00;;;14.18;62.99
13476;BME280;6810;63.824;20.288;2022-09-09T16:51:57;102226.31;;;14.13;63.14
13476;BME280;6810;63.824;20.288;2022-09-09T16:54:46;102230.94;;;14.10;63.61
13476;BME280;6810;63.824;20.288;2022-09-09T16:57:33;102247.19;;;14.07;63.74
13476;BME280;6810;63.824;20.288;2022-09-09T17:00:20;102226.03;;;14.01;64.02
13476;BME280;6810;63.824;20.288;2022-09-09T17:03:12;102241.00;;;14.05;64.09
13476;BME280;6810;63.824;20.288;2022-09-09T17:05:59;102239.34;;;14.02;64.09
13476;BME280;6810;63.824;20.288;2022-09-09T17:08:59;102236.81;;;13.99;64.52
13476;BME280;6810;63.824;20.288;2022-09-09T17:11:47;102227.13;;;13.97;64.14
13476;BME280;6810;63.824;20.288;2022-09-09T17:14:34;102241.53;;;13.94;64.42
13476;BME280;6810;63.824;20.288;2022-09-09T17:17:21;102242.63;;;13.90;64.69
13476;BME280;6810;63.824;20.288;2022-09-09T17:20:08;102236.53;;;13.86;65.46
13476;BME280;6810;63.824;20.288;2022-09-09T17:23:11;102236.69;;;13.83;65.31
13476;BME280;6810;63.824;20.288;2022-09-09T17:25:59;102239.56;;;13.79;65.47
13476;BME280;6810;63.824;20.288;2022-09-09T17:28:47;102240.59;;;13.76;65.48
13476;BME280;6810;63.824;20.288;2022-09-09T17:31:34;102233.47;;;13.75;65.19
13476;BME280;6810;63.824;20.288;2022-09-09T17:34:21;102233.63;;;13.72;65.71
13476;BME280;6810;63.824;20.288;2022-09-09T17:37:07;102230.25;;;13.69;65.64
13476;BME280;6810;63.824;20.288;2022-09-09T17:39:54;102226.91;;;13.64;66.15
13476;BME280;6810;63.824;20.288;2022-09-09T17:42:41;102235.00;;;13.62;66.34
13476;BME280;6810;63.824;20.288;2022-09-09T17:45:28;102235.31;;;13.56;65.82
13476;BME280;6810;63.824;20.288;2022-09-09T17:48:15;102215.28;;;13.45;65.84
13476;BME280;6810;63.824;20.288;2022-09-09T17:51:07;102238.13;;;13.53;66.53
13476;BME280;6810;63.824;20.288;2022-09-09T17:53:56;102233.78;;;13.51;66.03
13476;BME280;6810;63.824;20.288;2022-09-09T17:56:44;102228.56;;;13.48;67.15
13476;BME280;6810;63.824;20.288;2022-09-09T17:59:32;102237.75;;;13.42;66.88
13476;BME280;6810;63.824;20.288;2022-09-09T18:02:19;102240.56;;;13.39;66.40
13476;BME280;6810;63.824;20.288;2022-09-09T18:05:06;102244.31;;;13.35;66.96
13476;BME280;6810;63.824;20.288;2022-09-09T18:07:53;102238.16;;;13.33;67.39
13476;BME280;6810;63.824;20.288;2022-09-09T18:10:40;102241.94;;;13.29;66.80
13476;BME280;6810;63.824;20.288;2022-09-09T18:13:27;102237.63;;;13.25;66.78
13476;BME280;6810;63.824;20.288;2022-09-09T18:16:14;102238.72;;;13.21;67.28
13476;BME280;6810;63.824;20.288;2022-09-09T18:19:07;102236.19;;;13.18;67.14
13476;BME280;6810;63.824;20.288;2022-09-09T18:21:55;102240.78;;;13.15;67.74
13476;BME280;6810;63.824;20.288;2022-09-09T18:24:42;102245.34;;;13.13;68.19
13476;BME280;6810;63.824;20.288;2022-09-09T18:27:29;102242.78;;;13.10;67.52
13476;BME280;6810;63.824;20.288;2022-09-09T18:30:16;102242.94;;;13.07;68.11
13476;BME280;6810;63.824;20.288;2022-09-09T18:33:03;102243.13;;;13.02;67.97
13476;BME280;6810;63.824;20.288;2022-09-09T18:35:50;102229.00;;;12.99;67.90
13476;BME280;6810;63.824;20.288;2022-09-09T18:38:37;102223.31;;;12.86;68.19
13476;BME280;6810;63.824;20.288;2022-09-09T18:41:32;102235.47;;;12.93;69.13
13476;BME280;6810;63.824;20.288;2022-09-09T18:44:22;102234.75;;;12.90;68.85
13476;BME280;6810;63.824;20.288;2022-09-09T18:47:10;102234.03;;;12.86;69.10
13476;BME280;6810;63.824;20.288;2022-09-09T18:49:57;102242.13;;;12.85;68.86
13476;BME280;6810;63.824;20.288;2022-09-09T18:52:44;102236.91;;;12.82;69.01
13476;BME280;6810;63.824;20.288;2022-09-09T18:55:31;102237.94;;;12.78;69.25
13476;BME280;6810;63.824;20.288;2022-09-09T18:58:18;102230.25;;;12.70;69.16
13476;BME280;6810;63.824;20.288;2022-09-09T19:01:11;102233.06;;;12.67;69.28
13476;BME280;6810;63.824;20.288;2022-09-09T19:03:59;102191.63;;;12.36;69.54
13476;BME280;6810;63.824;20.288;2022-09-09T19:06:46;102223.06;;;12.51;70.14
13476;BME280;6810;63.824;20.288;2022-09-09T19:09:34;102244.97;;;12.60;69.88
13476;BME280;6810;63.824;20.288;2022-09-09T19:12:21;102248.66;;;12.58;70.36
13476;BME280;6810;63.824;20.288;2022-09-09T19:15:08;102247.09;;;12.52;69.77
13476;BME280;6810;63.824;20.288;2022-09-09T19:17:55;102242.69;;;12.51;70.21
13476;BME280;6810;63.824;20.288;2022-09-09T19:20:42;102242.81;;;12.48;69.86
13476;BME280;6810;63.824;20.288;2022-09-09T19:23:29;102237.66;;;12.44;70.56
13476;BME280;6810;63.824;20.288;2022-09-09T19:26:16;102243.97;;;12.41;70.09
13476;BME280;6810;63.824;20.288;2022-09-09T19:29:03;102244.09;;;12.38;70.51
13476;BME280;6810;63.824;20.288;2022-09-09T19:31:53;102234.41;;;12.36;69.94
13476;BME280;6810;63.824;20.288;2022-09-09T19:35:00;102224.84;;;12.30;70.24
13476;BME280;6810;63.824;20.288;2022-09-09T19:37:47;102229.44;;;12.27;70.73
13476;BME280;6810;63.824;20.288;2022-09-09T19:40:35;102234.94;;;12.23;70.73
13476;BME280;6810;63.824;20.288;2022-09-09T19:43:23;102222.78;;;12.15;70.86
13476;BME280;6810;63.824;20.288;2022-09-09T19:46:11;102236.00;;;12.19;71.14
13476;BME280;6810;63.824;20.288;2022-09-09T19:48:59;102233.41;;;12.16;71.06
13476;BME280;6810;63.824;20.288;2022-09-09T19:51:46;102234.41;;;12.14;71.24
13476;BME280;6810;63.824;20.288;2022-09-09T19:54:33;102232.75;;;12.11;70.82
13476;BME280;6810;63.824;20.288;2022-09-09T19:57:20;102217.22;;;11.99;71.49
13476;BME280;6810;63.824;20.288;2022-09-09T20:00:08;102234.66;;;12.08;70.53
13476;BME280;6810;63.824;20.288;2022-09-09T20:02:55;102241.03;;;12.05;70.47
13476;BME280;6810;63.824;20.288;2022-09-09T20:05:45;102239.31;;;12.03;70.82
13476;BME280;6810;63.824;20.288;2022-09-09T20:08:34;102242.06;;;12.01;70.47
13476;BME280;6810;63.824;20.288;2022-09-09T20:11:22;102242.25;;;11.97;70.90
13476;BME280;6810;63.824;20.288;2022-09-09T20:14:10;102250.38;;;11.94;71.38
13476;BME280;6810;63.824;20.288;2022-09-09T20:17:02;102241.63;;;11.90;70.85
13476;BME280;6810;63.824;20.288;2022-09-09T20:19:49;102246.16;;;11.88;71.27
13476;BME280;6810;63.824;20.288;2022-09-09T20:22:36;102250.75;;;11.85;71.68
13476;BME280;6810;63.824;20.288;2022-09-09T20:25:23;102242.22;;;11.75;71.33
13476;BME280;6810;63.824;20.288;2022-09-09T20:28:10;102249.25;;;11.78;71.79
13476;BME280;6810;63.824;20.288;2022-09-09T20:31:06;102247.59;;;11.74;71.35
13476;BME280;6810;63.824;20.288;2022-09-09T20:33:55;102248.56;;;11.73;71.54
13476;BME280;6810;63.824;20.288;2022-09-09T20:36:43;102254.00;;;11.70;71.23
13476;BME280;6810;63.824;20.288;2022-09-09T20:39:30;102254.13;;;11.67;71.41
13476;BME280;6810;63.824;20.288;2022-09-09T20:42:17;102249.78;;;11.64;71.76
13476;BME280;6810;63.824;20.288;2022-09-09T20:45:04;102259.66;;;11.62;70.60
13476;BME280;6810;63.824;20.288;2022-09-09T20:47:51;102256.19;;;11.59;70.79